Portada
METAR-TAF:

METAR-TAF

Aeropuertos :

Condado de Stanton, Kansas, Estados Unidos

latitud: 37-35-07N, longitud: 101-43-56W, altitud: 1013 m

Observación

El informe se hizo hace 22 minutos, a las 00:55 UTC
Viento 11 kt del este
Temperatura 25°C
Humedad 44%
Presión 1022 hPa
Visibilidad: 16.1 km
Cielo despejado

METAR: KJHN 290055Z AUTO 08011KT 10SM CLR 25/12 A3018 RMK AO2 T02500115

Hora: 20:17 (01:17 UTC)


TAF: falta

Observaciones y pronósticos meteorológicos de más de 4000 aeropuertos (mensajes METAR y TAF).

Los puntos amarillos y rojos representan las estaciones disponibles.

Ponga el ratón en el punto deseado para ver el nombre de la estación.

Haga clic para ver las observaciones y los pronósticos meteorológicos.

Para cambiar el mapa : haga clic en los botones verdes con una cruz de color negro para hacer un zoom, en el botón verde con un guión para alejar o en las flechas verdes para mapas adyacentes.


METAR-TAF: